Time;durP1;ratioP1;P1;durP2;ratioP2;P2;SDS_P1;SDS_P2;PMS_P1;PMS_P2;Temp;Humidity;BMP_temperature;BMP_pressure;BME280_temperature;BME280_humidity;BME280_pressure;Samples;Min_cycle;Max_cycle;Signal;HPM_P1;HPM_P2
2022/05/21 00:00:21;;;;;;;;;;;;;;;28.31;35.93;99037.09;4467422;32;33643;-83
2022/05/21 00:02:50;;;;;;;;;;;;;;;28.24;36.13;99038.41;4469746;32;33332;-83
2022/05/21 00:05:17;;;;;;;;;;;;;;;28.07;36.66;99034.09;4483190;32;34375;-83
2022/05/21 00:07:45;;;;;;;;;;;;;;;28.04;36.76;99028.97;4469321;32;34137;-82
2022/05/21 00:10:13;;;;;;;;;;;;;;;28.05;36.74;99030.69;4477421;32;33853;-82
2022/05/21 00:12:41;;;;;;;;;;;;;;;27.98;36.97;99022.19;4469322;32;33907;-82
2022/05/21 00:15:09;;;;;;;;;;;;;;;27.83;37.23;99021.31;4483532;32;34848;-83
2022/05/21 00:17:37;;;;;;;;;;;;;;;27.80;37.30;99028.62;4455789;32;34059;-83
2022/05/21 00:20:07;;;;;;;;;;;;;;;27.97;36.95;99025.81;4454479;32;33396;-82
2022/05/21 00:22:34;;;;;;;;;;;;;;;27.69;37.55;99012.41;4472597;32;34846;-84
2022/05/21 00:25:02;;;;;;;;;;;;;;;28.00;36.93;99007.00;4454018;32;34542;-83
2022/05/21 00:27:29;;;;;;;;;;;;;;;27.99;36.92;99005.25;4467587;32;34188;-83
2022/05/21 00:29:57;;;;;;;;;;;;;;;27.94;36.97;99004.69;4468610;32;33109;-81
2022/05/21 00:32:24;;;;;;;;;;;;;;;27.96;37.01;99000.13;4477330;32;33537;-84
2022/05/21 00:34:51;;;;;;;;;;;;;;;27.96;36.93;99000.13;4483685;32;34097;-83
2022/05/21 00:37:19;;;;;;;;;;;;;;;27.96;36.90;98999.25;4481788;32;34103;-83
2022/05/21 00:39:46;;;;;;;;;;;;;;;27.87;37.01;98992.69;4482977;31;33691;-82
2022/05/21 00:42:13;;;;;;;;;;;;;;;28.03;36.70;98989.94;4481279;32;34991;-83
2022/05/21 00:44:41;;;;;;;;;;;;;;;27.99;36.80;98989.25;4483552;32;35242;-84
2022/05/21 00:47:08;;;;;;;;;;;;;;;28.07;36.57;98981.69;4482724;32;34299;-84
2022/05/21 00:49:35;;;;;;;;;;;;;;;28.06;36.58;98979.94;4482745;32;33214;-83
2022/05/21 00:52:12;;;;;;;;;;;;;;;28.02;36.65;98977.56;4477066;32;34424;-83
2022/05/21 00:54:44;;;;;;;;;;;;;;;27.88;37.05;98981.97;4470754;32;34529;-81
2022/05/21 00:57:14;;;;;;;;;;;;;;;27.72;37.50;98990.94;4467719;32;33702;-83
2022/05/21 00:59:47;;;;;;;;;;;;;;;27.87;37.16;98998.88;4477448;32;33376;-83
2022/05/21 01:02:16;;;;;;;;;;;;;;;27.59;37.73;99004.97;4461390;32;34877;-82
2022/05/21 01:04:46;;;;;;;;;;;;;;;27.79;37.32;99009.13;4459743;32;35175;-83
2022/05/21 01:07:15;;;;;;;;;;;;;;;27.77;37.38;99010.16;4467853;32;33731;-83
2022/05/21 01:09:53;;;;;;;;;;;;;;;27.80;37.25;99012.66;4467935;32;33585;-83
2022/05/21 01:12:29;;;;;;;;;;;;;;;27.95;36.85;99002.87;4480872;32;34860;-82
2022/05/21 01:14:58;;;;;;;;;;;;;;;27.91;36.94;98996.03;4482775;32;34281;-83
2022/05/21 01:17:25;;;;;;;;;;;;;;;27.72;37.36;99001.56;4453326;32;34397;-82
2022/05/21 01:20:04;;;;;;;;;;;;;;;27.48;38.13;99009.22;4478915;32;33988;-82
2022/05/21 01:22:32;;;;;;;;;;;;;;;27.50;38.16;99009.97;4481354;32;33761;-83
2022/05/21 01:24:59;;;;;;;;;;;;;;;27.44;38.38;99016.53;4467659;32;35430;-83
2022/05/21 01:27:27;;;;;;;;;;;;;;;27.52;38.22;99022.28;4467740;32;35049;-83
2022/05/21 01:29:54;;;;;;;;;;;;;;;27.64;37.96;99010.03;4479389;32;33747;-82
2022/05/21 01:32:22;;;;;;;;;;;;;;;27.64;37.79;99002.87;4468783;32;34298;-84
2022/05/21 01:34:49;;;;;;;;;;;;;;;27.71;37.70;99000.72;4483055;32;34429;-82
2022/05/21 01:37:16;;;;;;;;;;;;;;;27.74;37.73;98992.59;4473948;32;32781;-84
2022/05/21 01:39:44;;;;;;;;;;;;;;;27.65;37.96;98991.31;4467402;32;32840;-83
2022/05/21 01:42:11;;;;;;;;;;;;;;;27.55;38.19;98991.94;4470724;32;33795;-83
2022/05/21 01:44:40;;;;;;;;;;;;;;;27.63;38.00;98987.87;4453407;32;34299;-83
2022/05/21 01:47:08;;;;;;;;;;;;;;;27.65;37.87;98990.44;4476115;32;34444;-83
2022/05/21 01:49:35;;;;;;;;;;;;;;;27.61;37.94;99000.41;4477084;32;33806;-83
2022/05/21 01:52:03;;;;;;;;;;;;;;;27.38;38.59;99004.44;4468409;32;34796;-83
2022/05/21 01:54:31;;;;;;;;;;;;;;;27.51;38.41;99019.72;4467567;32;34399;-83
2022/05/21 01:56:58;;;;;;;;;;;;;;;27.45;38.44;99028.91;4477234;32;35011;-83
2022/05/21 01:59:26;;;;;;;;;;;;;;;27.46;38.57;99049.25;4462329;32;33377;-83
2022/05/21 02:01:54;;;;;;;;;;;;;;;27.29;39.19;99115.94;4468086;32;34134;-87
2022/05/21 02:04:21;;;;;;;;;;;;;;;26.41;40.77;99154.34;4483044;32;35367;-85
2022/05/21 02:06:49;;;;;;;;;;;;;;;26.00;41.36;99132.56;4473703;32;33920;-81
2022/05/21 02:09:16;;;;;;;;;;;;;;;26.65;39.67;99110.53;4482111;32;33422;-84
2022/05/21 02:11:45;;;;;;;;;;;;;;;26.63;39.71;99140.78;4482864;32;34073;-85
2022/05/21 02:14:12;;;;;;;;;;;;;;;26.31;40.55;99143.31;4480026;32;35271;-83
2022/05/21 02:16:39;;;;;;;;;;;;;;;26.49;40.22;99156.63;4467037;32;34391;-84
2022/05/21 02:19:07;;;;;;;;;;;;;;;25.34;43.34;99170.28;4474030;32;34362;-85
2022/05/21 02:21:37;;;;;;;;;;;;;;;25.84;43.15;99172.31;4480849;32;34412;-83
2022/05/21 02:24:04;;;;;;;;;;;;;;;24.70;45.79;99164.34;4482010;32;35272;-83
2022/05/21 02:26:35;;;;;;;;;;;;;;;25.58;44.21;99162.94;4470610;32;34104;-83
2022/05/21 02:29:03;;;;;;;;;;;;;;;24.89;45.66;99152.88;4473494;32;34114;-84
2022/05/21 02:31:31;;;;;;;;;;;;;;;24.91;45.77;99151.03;4482468;32;34142;-84
2022/05/21 02:33:59;;;;;;;;;;;;;;;25.17;45.02;99153.38;4467473;32;34030;-82
2022/05/21 02:39:27;;;;;;;;;;;;;;;24.10;46.92;99155.47;4471783;32;33259;-83
2022/05/21 02:41:58;;;;;;;;;;;;;;;24.06;46.21;99164.50;4474699;32;35367;-83
2022/05/21 02:44:26;;;;;;;;;;;;;;;24.87;44.69;99168.03;4480144;32;33893;-85
2022/05/21 02:46:55;;;;;;;;;;;;;;;23.83;47.27;99164.56;4467980;32;34183;-83
2022/05/21 02:49:22;;;;;;;;;;;;;;;23.97;46.88;99172.81;4482374;32;34233;-84
2022/05/21 02:51:50;;;;;;;;;;;;;;;22.94;49.99;99173.34;4476200;32;34615;-83
2022/05/21 02:54:18;;;;;;;;;;;;;;;23.44;48.76;99174.03;4454719;32;35028;-84
2022/05/21 02:56:45;;;;;;;;;;;;;;;24.07;47.73;99179.44;4471706;32;34299;-84
2022/05/21 02:59:13;;;;;;;;;;;;;;;23.59;49.04;99171.69;4471510;32;34107;-82
2022/05/21 03:01:41;;;;;;;;;;;;;;;23.64;48.90;99185.59;4473942;32;34255;-83
2022/05/21 03:04:08;;;;;;;;;;;;;;;23.48;49.72;99185.34;4475254;32;34483;-84
2022/05/21 03:06:36;;;;;;;;;;;;;;;22.32;53.36;99182.59;4474913;32;33779;-81
2022/05/21 03:11:50;;;;;;;;;;;;;;;22.53;53.73;99162.47;4470221;32;34782;-82
2022/05/21 03:14:17;;;;;;;;;;;;;;;23.25;52.14;99151.88;4468495;32;34081;-83
2022/05/21 03:16:44;;;;;;;;;;;;;;;22.50;54.11;99144.09;4468917;32;34966;-81
2022/05/21 03:19:12;;;;;;;;;;;;;;;22.99;53.13;99142.28;4468666;32;33392;-81
2022/05/21 03:21:39;;;;;;;;;;;;;;;22.06;56.06;99135.94;4470600;32;34123;-83
2022/05/21 03:24:06;;;;;;;;;;;;;;;22.43;54.92;99161.09;4468547;32;35359;-83
2022/05/21 03:26:35;;;;;;;;;;;;;;;22.62;54.27;99170.09;4483638;32;34551;-81
2022/05/21 03:29:02;;;;;;;;;;;;;;;23.10;52.78;99169.19;4483299;32;34144;-81
2022/05/21 03:31:29;;;;;;;;;;;;;;;23.11;52.62;99170.94;4472797;32;34852;-82
2022/05/21 03:33:57;;;;;;;;;;;;;;;23.11;52.79;99157.72;4468398;32;34495;-81
2022/05/21 03:36:24;;;;;;;;;;;;;;;23.66;51.13;99152.00;4454361;32;34319;-82
2022/05/21 03:38:53;;;;;;;;;;;;;;;23.54;51.38;99145.44;4468458;32;34144;-83
2022/05/21 03:41:20;;;;;;;;;;;;;;;23.11;52.44;99160.34;4475021;32;34092;-82
2022/05/21 03:43:47;;;;;;;;;;;;;;;23.62;50.89;99140.69;4468054;32;35350;-82
2022/05/21 03:46:15;;;;;;;;;;;;;;;23.88;50.34;99130.84;4468306;32;34717;-83
2022/05/21 03:48:42;;;;;;;;;;;;;;;22.75;53.44;99104.41;4468538;32;33019;-84
2022/05/21 03:51:10;;;;;;;;;;;;;;;22.40;54.51;99096.03;4475618;32;33967;-82
2022/05/21 03:53:37;;;;;;;;;;;;;;;23.40;51.44;99087.75;4483548;31;34190;-82
2022/05/21 03:56:05;;;;;;;;;;;;;;;23.20;51.93;99080.63;4484003;32;35190;-83
2022/05/21 03:58:32;;;;;;;;;;;;;;;24.17;49.42;99047.44;4483814;32;33481;-82
2022/05/21 04:01:00;;;;;;;;;;;;;;;24.65;48.29;99031.13;4463728;32;34022;-82
2022/05/21 04:03:27;;;;;;;;;;;;;;;25.42;46.35;99027.44;4469647;32;34289;-83
2022/05/21 04:05:57;;;;;;;;;;;;;;;25.89;45.34;99018.91;4479267;32;34358;-83
2022/05/21 04:08:25;;;;;;;;;;;;;;;25.88;44.55;99023.34;4469850;32;33140;-83
2022/05/21 04:10:52;;;;;;;;;;;;;;;25.80;44.56;99019.34;4482565;32;33826;-83
2022/05/21 04:13:20;;;;;;;;;;;;;;;25.35;44.68;99031.38;4483036;32;34195;-83
2022/05/21 04:15:47;;;;;;;;;;;;;;;24.69;46.34;99029.22;4482834;32;33850;-82
2022/05/21 04:18:17;;;;;;;;;;;;;;;25.03;45.69;99020.50;4483604;32;34228;-83
2022/05/21 04:20:44;;;;;;;;;;;;;;;24.55;46.59;99018.37;4476838;32;34335;-83
2022/05/21 04:23:12;;;;;;;;;;;;;;;23.97;48.01;99021.88;4469640;32;33966;-82
2022/05/21 04:25:39;;;;;;;;;;;;;;;24.05;47.86;99006.50;4478772;32;34118;-83
2022/05/21 04:28:06;;;;;;;;;;;;;;;24.92;45.57;99010.41;4471488;32;33302;-83
2022/05/21 04:30:35;;;;;;;;;;;;;;;25.02;45.73;99012.63;4480903;32;34008;-84
2022/05/21 04:33:03;;;;;;;;;;;;;;;24.74;46.30;99038.69;4470663;32;34442;-83
2022/05/21 04:38:16;;;;;;;;;;;;;;;25.84;44.20;99042.19;4468789;32;33104;-81
2022/05/21 04:40:44;;;;;;;;;;;;;;;26.43;43.69;99075.38;4482815;31;35147;-82
2022/05/21 04:43:11;;;;;;;;;;;;;;;26.21;44.62;99086.28;4481933;32;34437;-83
2022/05/21 04:45:39;;;;;;;;;;;;;;;26.77;43.14;99113.47;4482894;32;34494;-83
2022/05/21 04:48:07;;;;;;;;;;;;;;;26.60;42.73;99119.72;4471537;31;33361;-82
2022/05/21 04:50:35;;;;;;;;;;;;;;;26.29;42.86;99123.97;4472918;32;34028;-83
2022/05/21 04:53:03;;;;;;;;;;;;;;;27.18;41.11;99108.53;4456601;32;35283;-83
2022/05/21 04:55:30;;;;;;;;;;;;;;;26.97;41.67;99121.19;4468466;32;34928;-83
2022/05/21 04:57:58;;;;;;;;;;;;;;;27.43;40.95;99124.00;4478122;32;34387;-83
2022/05/21 05:00:27;;;;;;;;;;;;;;;26.47;43.19;99114.16;4479937;32;34350;-83
2022/05/21 05:02:54;;;;;;;;;;;;;;;26.67;43.17;99118.44;4467106;32;35267;-82
2022/05/21 05:05:22;;;;;;;;;;;;;;;26.81;43.38;99115.88;4473792;32;34938;-86
2022/05/21 05:07:50;;;;;;;;;;;;;;;26.00;44.65;99122.78;4468763;32;33002;-83
2022/05/21 05:10:17;;;;;;;;;;;;;;;26.22;44.44;99142.97;4470502;32;35124;-82
2022/05/21 05:12:44;;;;;;;;;;;;;;;26.60;43.89;99140.97;4483457;32;34417;-83
2022/05/21 05:15:12;;;;;;;;;;;;;;;25.91;46.38;99125.91;4481897;32;34246;-81
2022/05/21 05:17:39;;;;;;;;;;;;;;;25.73;46.28;99120.56;4477494;32;33482;-83
2022/05/21 05:20:06;;;;;;;;;;;;;;;25.79;46.77;99140.66;4482848;31;34131;-83
2022/05/21 05:22:34;;;;;;;;;;;;;;;24.83;48.79;99139.94;4482667;32;34987;-82
2022/05/21 05:25:04;;;;;;;;;;;;;;;25.52;47.13;99139.34;4471689;32;34288;-82
2022/05/21 05:27:31;;;;;;;;;;;;;;;24.00;50.02;99151.50;4479906;32;33580;-82
2022/05/21 05:30:00;;;;;;;;;;;;;;;24.53;49.13;99161.59;4483411;32;33950;-82
2022/05/21 05:32:28;;;;;;;;;;;;;;;23.87;51.14;99171.47;4475598;32;34205;-82
2022/05/21 05:34:55;;;;;;;;;;;;;;;23.50;51.88;99187.03;4467492;32;35060;-78
2022/05/21 05:37:22;;;;;;;;;;;;;;;23.60;51.49;99179.59;4479317;32;34503;-81
2022/05/21 05:39:50;;;;;;;;;;;;;;;24.09;50.22;99177.56;4469580;32;34981;-81
2022/05/21 05:42:17;;;;;;;;;;;;;;;23.70;51.47;99190.69;4459713;32;32933;-81
2022/05/21 05:44:45;;;;;;;;;;;;;;;23.26;52.74;99178.28;4478924;32;33784;-82
2022/05/21 05:47:12;;;;;;;;;;;;;;;22.84;54.40;99180.69;4469452;32;33308;-81
2022/05/21 05:49:39;;;;;;;;;;;;;;;22.70;55.16;99193.59;4467538;32;34416;-81
2022/05/21 05:52:08;;;;;;;;;;;;;;;24.15;51.42;99165.88;4468256;32;34205;-81
2022/05/21 05:54:37;;;;;;;;;;;;;;;23.92;52.15;99148.31;4469362;32;34102;-84
2022/05/21 05:57:08;;;;;;;;;;;;;;;23.47;52.92;99152.75;4469287;32;34232;-80
2022/05/21 05:59:51;;;;;;;;;;;;;;;23.84;52.30;99155.72;4467924;32;35062;-88
2022/05/21 06:05:06;;;;;;;;;;;;;;;23.21;53.05;99161.69;4481201;32;35075;-85
2022/05/21 06:07:34;;;;;;;;;;;;;;;22.74;53.44;99166.12;4468744;32;34269;-82
2022/05/21 06:10:03;;;;;;;;;;;;;;;23.79;50.62;99154.13;4463282;32;34924;-81
2022/05/21 06:12:35;;;;;;;;;;;;;;;23.39;51.15;99156.63;4473643;32;32910;-82
2022/05/21 06:15:03;;;;;;;;;;;;;;;22.88;52.71;99174.41;4482973;31;33667;-80
2022/05/21 06:17:30;;;;;;;;;;;;;;;22.98;53.11;99185.53;4473868;31;33720;-80
2022/05/21 06:19:58;;;;;;;;;;;;;;;23.24;52.04;99193.34;4478200;31;34361;-81
2022/05/21 06:22:25;;;;;;;;;;;;;;;23.58;53.25;99197.31;4471948;32;34485;-80
2022/05/21 06:25:00;;;;;;;;;;;;;;;22.87;55.30;99211.47;4473553;32;35628;-81
2022/05/21 06:27:27;;;;;;;;;;;;;;;22.58;56.40;99218.69;4465934;32;33388;-81
2022/05/21 06:29:54;;;;;;;;;;;;;;;23.46;55.17;99229.53;4483649;32;34035;-81
2022/05/21 06:32:22;;;;;;;;;;;;;;;23.64;54.68;99197.06;4481273;32;34338;-80
2022/05/21 06:34:49;;;;;;;;;;;;;;;23.21;55.64;99206.66;4471990;32;34284;-82
2022/05/21 06:37:16;;;;;;;;;;;;;;;23.82;54.63;99190.19;4476526;32;34270;-85
2022/05/21 06:39:44;;;;;;;;;;;;;;;23.22;55.85;99200.47;4474914;32;35521;-83
2022/05/21 06:42:12;;;;;;;;;;;;;;;23.67;54.73;99183.72;4468746;32;35019;-82
2022/05/21 06:44:42;;;;;;;;;;;;;;;23.79;54.65;99182.38;4476900;32;34216;-81
2022/05/21 06:47:10;;;;;;;;;;;;;;;23.76;54.55;99174.56;4468534;32;34311;-81
2022/05/21 06:49:37;;;;;;;;;;;;;;;23.71;55.76;99176.53;4468728;32;34144;-81
2022/05/21 06:52:04;;;;;;;;;;;;;;;24.18;53.60;99171.06;4468479;32;34215;-82
2022/05/21 06:54:32;;;;;;;;;;;;;;;24.37;52.91;99160.53;4476967;32;35074;-82
2022/05/21 06:56:59;;;;;;;;;;;;;;;24.83;52.30;99153.19;4470435;32;34281;-81
2022/05/21 06:59:26;;;;;;;;;;;;;;;25.16;51.39;99137.53;4472642;32;34349;-86
2022/05/21 07:01:54;;;;;;;;;;;;;;;25.12;50.84;99128.00;4458222;32;34416;-80
2022/05/21 07:07:32;;;;;;;;;;;;;;;25.34;50.81;99133.13;4475797;32;33942;-87
2022/05/21 07:09:57;;;;;;;;;;;;;;;24.51;53.36;99121.06;4483888;32;35635;-88
2022/05/21 07:12:27;;;;;;;;;;;;;;;24.22;53.24;99117.84;4484155;32;34367;-85
2022/05/21 07:14:54;;;;;;;;;;;;;;;24.92;51.85;99126.22;4484216;32;33845;-82
2022/05/21 07:17:21;;;;;;;;;;;;;;;24.83;53.21;99122.22;4478004;31;34128;-82
2022/05/21 07:19:49;;;;;;;;;;;;;;;24.50;53.71;99116.66;4474776;32;34076;-80
2022/05/21 07:22:16;;;;;;;;;;;;;;;24.70;53.86;99121.94;4471957;32;34317;-82
2022/05/21 07:24:43;;;;;;;;;;;;;;;24.54;55.02;99126.19;4479265;31;34318;-82
2022/05/21 07:27:12;;;;;;;;;;;;;;;24.91;52.77;99124.53;4468200;32;34120;-82
2022/05/21 07:29:39;;;;;;;;;;;;;;;24.70;52.88;99116.63;4460056;32;33927;-81
2022/05/21 07:32:08;;;;;;;;;;;;;;;24.68;53.07;99117.63;4470975;32;35435;-82
2022/05/21 07:34:36;;;;;;;;;;;;;;;24.62;53.27;99124.06;4454058;32;33919;-82
2022/05/21 07:37:03;;;;;;;;;;;;;;;23.89;55.68;99127.25;4467407;32;34265;-81
2022/05/21 07:39:31;;;;;;;;;;;;;;;25.02;53.97;99132.84;4471471;32;34295;-81
2022/05/21 07:41:58;;;;;;;;;;;;;;;24.81;54.09;99147.09;4479205;32;34125;-82
2022/05/21 07:44:26;;;;;;;;;;;;;;;25.41;53.73;99143.38;4473253;32;34126;-82
2022/05/21 07:46:53;;;;;;;;;;;;;;;25.81;50.84;99137.94;4470097;32;33881;-83
2022/05/21 07:49:20;;;;;;;;;;;;;;;25.43;52.15;99156.59;4475935;31;33909;-81
2022/05/21 07:51:48;;;;;;;;;;;;;;;25.31;52.93;99173.09;4482490;32;35114;-85
2022/05/21 07:54:15;;;;;;;;;;;;;;;25.59;52.07;99180.59;4475277;32;35015;-82
2022/05/21 07:56:43;;;;;;;;;;;;;;;25.41;52.20;99187.63;4468172;32;33155;-82
2022/05/21 07:59:10;;;;;;;;;;;;;;;25.32;51.61;99196.91;4468080;32;35030;-83
2022/05/21 08:01:37;;;;;;;;;;;;;;;26.10;50.69;99197.56;4470674;32;34045;-85
2022/05/21 08:04:05;;;;;;;;;;;;;;;25.43;51.51;99207.87;4472845;32;34309;-84
2022/05/21 08:06:35;;;;;;;;;;;;;;;26.23;49.26;99192.50;4483741;32;33614;-85
2022/05/21 08:09:02;;;;;;;;;;;;;;;25.61;50.85;99207.91;4483553;32;34151;-84
2022/05/21 08:11:30;;;;;;;;;;;;;;;26.00;49.71;99198.97;4483793;32;34084;-85
2022/05/21 08:13:57;;;;;;;;;;;;;;;26.72;47.79;99192.66;4477533;32;33928;-80
2022/05/21 08:16:24;;;;;;;;;;;;;;;26.62;47.59;99193.13;4480038;32;33196;-81
2022/05/21 08:18:52;;;;;;;;;;;;;;;25.79;48.92;99195.56;4483424;32;34337;-82
2022/05/21 08:21:19;;;;;;;;;;;;;;;25.68;49.34;99190.75;4478442;32;35296;-90
2022/05/21 08:29:19;;;;;;;;;;;;;;;26.57;48.69;99187.19;4483531;32;33428;-95
2022/05/21 08:31:47;;;;;;;;;;;;;;;25.55;49.21;99174.56;4483430;32;34442;-82
2022/05/21 08:34:14;;;;;;;;;;;;;;;26.78;46.82;99179.00;4474360;32;33999;-85
2022/05/21 08:36:41;;;;;;;;;;;;;;;26.79;48.01;99175.44;4469400;32;33092;-82
2022/05/21 08:39:12;;;;;;;;;;;;;;;26.90;46.99;99191.66;4468594;32;34143;-86
2022/05/21 08:41:44;;;;;;;;;;;;;;;26.84;47.04;99179.53;4467787;32;34148;-91
2022/05/21 08:44:17;;;;;;;;;;;;;;;26.68;47.49;99184.81;4482135;31;34321;-90
2022/05/21 08:47:03;;;;;;;;;;;;;;;27.30;46.67;99186.84;4479434;32;33555;-82
2022/05/21 08:49:39;;;;;;;;;;;;;;;25.80;49.64;99162.75;4481650;32;34310;-82
2022/05/21 08:52:09;;;;;;;;;;;;;;;25.83;49.71;99175.91;4472587;31;35091;-86
2022/05/21 08:54:43;;;;;;;;;;;;;;;26.29;48.09;99186.84;4475972;31;35089;-81
2022/05/21 08:57:12;;;;;;;;;;;;;;;26.18;47.76;99185.63;4472612;32;34475;-86
2022/05/21 08:59:42;;;;;;;;;;;;;;;25.90;49.39;99188.78;4457778;32;33500;-83
2022/05/21 09:02:12;;;;;;;;;;;;;;;26.33;47.42;99186.66;4460466;32;34504;-89
2022/05/21 09:04:40;;;;;;;;;;;;;;;27.13;46.91;99193.97;4460113;32;34202;-90
2022/05/21 09:07:14;;;;;;;;;;;;;;;26.98;47.47;99186.78;4469952;32;34184;-85
2022/05/21 09:09:52;;;;;;;;;;;;;;;27.08;47.05;99177.34;4464740;32;33875;-86
2022/05/21 09:12:21;;;;;;;;;;;;;;;28.05;43.96;99180.78;4453973;32;34442;-84
2022/05/21 09:14:52;;;;;;;;;;;;;;;27.05;47.02;99181.97;4454270;32;34712;-87
2022/05/21 09:17:21;;;;;;;;;;;;;;;27.78;44.35;99177.06;4456407;32;32942;-84
2022/05/21 09:19:50;;;;;;;;;;;;;;;28.04;43.65;99179.06;4481339;32;33960;-84
2022/05/21 09:22:18;;;;;;;;;;;;;;;28.56;42.22;99184.00;4460660;32;35270;-86
2022/05/21 09:25:15;;;;;;;;;;;;;;;28.43;41.40;99180.34;4479985;32;34526;-85
2022/05/21 09:27:43;;;;;;;;;;;;;;;27.84;42.17;99187.34;4479967;32;33454;-86
2022/05/21 09:30:20;;;;;;;;;;;;;;;28.38;41.17;99176.25;4476540;32;34190;-91
2022/05/21 09:32:52;;;;;;;;;;;;;;;26.74;43.42;99186.28;4479640;32;35248;-84
2022/05/21 09:35:20;;;;;;;;;;;;;;;26.79;43.92;99194.03;4475056;32;34708;-81
2022/05/21 09:37:48;;;;;;;;;;;;;;;27.15;43.47;99181.41;4475613;32;34265;-82
2022/05/21 09:40:34;;;;;;;;;;;;;;;27.24;42.34;99193.37;4482882;32;34875;-84
2022/05/21 09:46:17;;;;;;;;;;;;;;;27.94;41.03;99185.03;4467882;32;33949;-84
2022/05/21 09:48:46;;;;;;;;;;;;;;;28.55;38.40;99176.91;4488977;31;33690;-83
2022/05/21 09:51:24;;;;;;;;;;;;;;;28.33;37.75;99180.00;4484208;31;34369;-85
2022/05/21 09:53:53;;;;;;;;;;;;;;;27.95;38.01;99165.41;4498098;31;34022;-82
2022/05/21 09:56:21;;;;;;;;;;;;;;;28.53;38.30;99175.31;4492212;31;34232;-84
2022/05/21 09:58:52;;;;;;;;;;;;;;;28.24;37.49;99169.87;4482253;32;33978;-89
2022/05/21 10:01:38;;;;;;;;;;;;;;;28.66;37.78;99178.94;4471818;32;33719;-83
2022/05/21 10:04:12;;;;;;;;;;;;;;;27.77;37.86;99178.87;4454007;32;35202;-91
2022/05/21 10:06:40;;;;;;;;;;;;;;;28.26;38.00;99173.34;4467124;32;34974;-84
2022/05/21 10:12:14;;;;;;;;;;;;;;;28.53;35.97;99186.84;4482563;32;35014;-83
2022/05/21 10:14:50;;;;;;;;;;;;;;;28.50;35.86;99180.84;4465627;32;34166;-90
2022/05/21 10:17:18;;;;;;;;;;;;;;;28.89;36.37;99168.66;4466914;32;34886;-82
2022/05/21 10:19:53;;;;;;;;;;;;;;;28.81;34.06;99161.97;4467498;32;33168;-81
2022/05/21 10:22:31;;;;;;;;;;;;;;;29.18;34.43;99166.84;4470572;31;33169;-81
2022/05/21 10:25:01;;;;;;;;;;;;;;;28.09;34.98;99176.13;4461112;32;34352;-82
2022/05/21 10:27:29;;;;;;;;;;;;;;;28.47;34.74;99171.19;4467923;32;34265;-82
2022/05/21 10:30:14;;;;;;;;;;;;;;;28.86;33.70;99175.03;4466683;32;34224;-82
2022/05/21 10:32:42;;;;;;;;;;;;;;;28.20;33.53;99175.50;4466894;32;35143;-83
2022/05/21 10:35:28;;;;;;;;;;;;;;;28.30;34.10;99172.19;4466972;32;33990;-82
2022/05/21 10:38:14;;;;;;;;;;;;;;;28.56;31.94;99170.66;4472199;32;34244;-82
2022/05/21 10:40:41;;;;;;;;;;;;;;;28.99;32.39;99161.81;4482517;32;33415;-82
2022/05/21 10:43:47;;;;;;;;;;;;;;;29.31;32.23;99154.41;4481358;32;34008;-87
2022/05/21 10:46:35;;;;;;;;;;;;;;;29.30;32.61;99176.75;4402560;32;33898;-81
2022/05/21 10:49:08;;;;;;;;;;;;;;;29.78;32.24;99167.38;4402457;32;34341;-82
2022/05/21 10:51:41;;;;;;;;;;;;;;;28.86;31.82;99161.69;4453632;32;33009;-83
2022/05/21 10:54:27;;;;;;;;;;;;;;;29.71;31.35;99157.19;4463643;32;34144;-87
2022/05/21 10:57:13;;;;;;;;;;;;;;;30.22;29.32;99163.56;4475161;32;34572;-88
2022/05/21 11:00:00;;;;;;;;;;;;;;;29.63;29.42;99167.53;4469489;32;34262;-82
2022/05/21 11:02:39;;;;;;;;;;;;;;;29.71;27.87;99176.75;4461479;32;33042;-79
2022/05/21 11:05:13;;;;;;;;;;;;;;;29.37;28.03;99178.06;4467047;32;34396;-80
2022/05/21 11:07:49;;;;;;;;;;;;;;;29.73;28.29;99163.28;4471080;32;35997;-81
2022/05/21 11:10:32;;;;;;;;;;;;;;;29.03;29.91;99174.88;4462046;32;35084;-80
2022/05/21 11:13:10;;;;;;;;;;;;;;;29.03;29.22;99172.22;4467138;32;33231;-90
2022/05/21 11:15:45;;;;;;;;;;;;;;;29.22;29.43;99165.69;4468505;32;34903;-82
2022/05/21 11:18:16;;;;;;;;;;;;;;;30.17;27.21;99162.16;4454486;32;34048;-83
2022/05/21 11:20:47;;;;;;;;;;;;;;;29.54;29.88;99161.78;4468792;32;34394;-81
2022/05/21 11:23:24;;;;;;;;;;;;;;;29.85;29.53;99164.28;4454414;32;33870;-82
2022/05/21 11:25:55;;;;;;;;;;;;;;;29.44;31.09;99160.69;4475426;32;34361;-84
2022/05/21 11:28:31;;;;;;;;;;;;;;;29.05;31.85;99164.94;4470519;32;34186;-80
2022/05/21 11:31:03;;;;;;;;;;;;;;;29.96;30.53;99145.72;4483958;32;34134;-80
2022/05/21 11:39:06;;;;;;;;;;;;;;;29.57;28.76;99137.59;4441403;32;34394;-85
2022/05/21 11:41:52;;;;;;;;;;;;;;;29.51;27.45;99139.75;4484022;32;34386;-88
2022/05/21 11:47:12;;;;;;;;;;;;;;;28.92;29.26;99142.63;4472246;31;34942;-86
2022/05/21 11:49:41;;;;;;;;;;;;;;;28.84;30.08;99145.78;4475806;32;35402;-81
2022/05/21 11:52:26;;;;;;;;;;;;;;;29.13;29.95;99142.25;4469759;32;34578;-82
2022/05/21 11:54:54;;;;;;;;;;;;;;;28.90;30.47;99146.34;4474753;31;33449;-81
2022/05/21 11:57:31;;;;;;;;;;;;;;;29.27;30.30;99144.91;4483811;32;34375;-82
2022/05/21 11:59:59;;;;;;;;;;;;;;;29.41;30.95;99147.53;4478942;32;34283;-80
2022/05/21 12:02:30;;;;;;;;;;;;;;;29.92;29.34;99142.38;4468596;32;34273;-93
2022/05/21 12:05:20;;;;;;;;;;;;;;;29.52;30.86;99128.12;4457471;32;34071;-82
2022/05/21 12:07:49;;;;;;;;;;;;;;;29.56;31.53;99138.53;4479793;32;34164;-86
2022/05/21 12:10:24;;;;;;;;;;;;;;;30.53;30.54;99138.25;4478877;32;35248;-82
2022/05/21 12:13:05;;;;;;;;;;;;;;;30.23;30.11;99141.22;4466544;32;34072;-82
2022/05/21 12:15:40;;;;;;;;;;;;;;;30.75;29.25;99144.78;4486755;31;33297;-82
2022/05/21 12:18:27;;;;;;;;;;;;;;;30.32;30.10;99153.09;4485608;31;34167;-82
2022/05/21 12:20:55;;;;;;;;;;;;;;;31.01;28.63;99146.44;4485226;31;34310;-84
2022/05/21 12:23:25;;;;;;;;;;;;;;;30.12;29.06;99126.81;4476585;31;34898;-86
2022/05/21 12:25:54;;;;;;;;;;;;;;;29.08;31.39;99129.19;4471256;32;34151;-85
2022/05/21 12:28:22;;;;;;;;;;;;;;;28.80;31.86;99136.25;4459418;32;35108;-82
2022/05/21 12:30:57;;;;;;;;;;;;;;;29.92;30.62;99131.69;4469697;32;34501;-93
2022/05/21 12:33:27;;;;;;;;;;;;;;;29.83;29.90;99143.03;4472943;32;34928;-89
2022/05/21 12:35:59;;;;;;;;;;;;;;;29.45;30.54;99127.69;4457112;32;32953;-83
2022/05/21 12:38:35;;;;;;;;;;;;;;;29.56;30.38;99138.53;4481336;32;34947;-81
2022/05/21 12:41:11;;;;;;;;;;;;;;;29.16;29.99;99118.03;4467577;32;35218;-84
2022/05/21 12:43:43;;;;;;;;;;;;;;;29.27;28.92;99129.72;4477013;32;34135;-82
2022/05/21 12:46:21;;;;;;;;;;;;;;;30.92;26.86;99122.16;4472831;32;33687;-82
2022/05/21 12:48:49;;;;;;;;;;;;;;;29.95;27.26;99126.16;4474157;32;33737;-83
2022/05/21 12:51:22;;;;;;;;;;;;;;;29.85;25.91;99119.69;4455719;32;34275;-81
2022/05/21 12:54:07;;;;;;;;;;;;;;;29.57;26.18;99113.53;4456229;32;35061;-81
2022/05/21 12:56:36;;;;;;;;;;;;;;;29.85;26.19;99118.84;4476848;32;33523;-82
2022/05/21 12:59:08;;;;;;;;;;;;;;;28.99;27.42;99119.97;4471027;32;33640;-81
2022/05/21 13:01:51;;;;;;;;;;;;;;;29.29;25.63;99122.50;4477447;31;34489;-82
2022/05/21 13:04:22;;;;;;;;;;;;;;;29.12;27.11;99125.37;4478785;32;34321;-82
2022/05/21 13:06:59;;;;;;;;;;;;;;;28.94;26.31;99119.34;4470809;32;34772;-82
2022/05/21 13:09:27;;;;;;;;;;;;;;;29.40;25.99;99113.78;4472478;32;34783;-83
2022/05/21 13:11:54;;;;;;;;;;;;;;;29.73;25.50;99115.19;4475108;32;34272;-84
2022/05/21 13:14:24;;;;;;;;;;;;;;;29.97;26.50;99116.22;4463742;32;34015;-81
2022/05/21 13:16:53;;;;;;;;;;;;;;;28.58;28.20;99104.72;4462302;32;33266;-81
2022/05/21 13:19:28;;;;;;;;;;;;;;;29.71;27.51;99106.44;4467806;32;33983;-79
2022/05/21 13:21:59;;;;;;;;;;;;;;;29.70;26.64;99118.06;4481463;32;33353;-82
2022/05/21 13:24:35;;;;;;;;;;;;;;;29.64;25.52;99118.50;4476263;32;34769;-82
2022/05/21 13:27:08;;;;;;;;;;;;;;;29.68;25.31;99104.81;4469780;32;34496;-90
2022/05/21 13:29:35;;;;;;;;;;;;;;;30.21;25.62;99128.91;4458488;32;34301;-84
2022/05/21 13:32:16;;;;;;;;;;;;;;;29.71;26.19;99098.41;4465695;32;34533;-81
2022/05/21 13:34:43;;;;;;;;;;;;;;;29.98;26.04;99111.72;4455288;32;34995;-80
2022/05/21 13:37:13;;;;;;;;;;;;;;;29.74;26.49;99108.91;4480831;32;33310;-80